Time;durP1;ratioP1;P1;durP2;ratioP2;P2;SDS_P1;SDS_P2;PMS_P1;PMS_P2;Temp;Humidity;BMP_temperature;BMP_pressure;BME280_temperature;BME280_humidity;BME280_pressure;Samples;Min_cycle;Max_cycle;Signal;HPM_P1;HPM_P2
2023/07/06 00:06:01;;;;;;;16.17;10.73;;;;;;;24.28;100.00;100388.75;21153869;27;20074;-78
2023/07/06 00:16:26;;;;;;;12.57;9.13;;;;;;;24.16;100.00;100373.06;21189579;27;20050;-78
2023/07/06 00:26:51;;;;;;;13.40;10.85;;;;;;;24.25;100.00;100372.69;21163523;27;20043;-78
2023/07/06 00:37:13;;;;;;;12.73;9.40;;;;;;;24.01;100.00;100354.91;21154124;27;20100;-79
2023/07/06 00:47:41;;;;;;;15.50;10.10;;;;;;;24.05;100.00;100345.72;21157076;27;20047;-78
2023/07/06 00:57:45;;;;;;;11.90;8.80;;;;;;;23.47;100.00;100345.69;21198828;27;20035;-79
2023/07/06 01:08:14;;;;;;;13.15;10.95;;;;;;;23.65;100.00;100355.63;21150196;27;20073;-78
2023/07/06 01:18:47;;;;;;;14.27;11.02;;;;;;;23.89;100.00;100352.78;21163640;27;20059;-79
2023/07/06 01:29:48;;;;;;;14.13;10.00;;;;;;;23.76;100.00;100357.88;21155587;27;20044;-78
2023/07/06 01:40:13;;;;;;;11.98;9.70;;;;;;;23.73;100.00;100356.16;21137738;27;20051;-78
2023/07/06 01:50:44;;;;;;;14.10;9.23;;;;;;;23.74;100.00;100365.13;21142862;27;20445;-78
2023/07/06 02:01:13;;;;;;;11.70;9.65;;;;;;;23.37;100.00;100361.31;21174052;27;20043;-79
2023/07/06 02:11:36;;;;;;;14.95;10.18;;;;;;;23.46;100.00;100362.75;21206541;27;20051;-78
2023/07/06 02:22:03;;;;;;;13.20;10.00;;;;;;;23.36;100.00;100369.50;21198693;27;20047;-78
2023/07/06 02:32:26;;;;;;;15.93;10.00;;;;;;;23.51;100.00;100382.31;21189935;27;20138;-77
2023/07/06 02:42:51;;;;;;;12.27;9.10;;;;;;;23.60;100.00;100381.91;21209004;27;20542;-79
2023/07/06 02:53:14;;;;;;;14.23;9.05;;;;;;;23.43;100.00;100390.69;21193833;27;20039;-78
2023/07/06 03:03:39;;;;;;;12.57;9.32;;;;;;;23.55;100.00;100394.72;21179223;27;20039;-79
2023/07/06 03:14:02;;;;;;;13.20;9.07;;;;;;;23.53;100.00;100391.22;21201792;27;20384;-79
2023/07/06 03:24:27;;;;;;;13.15;9.82;;;;;;;23.38;100.00;100383.75;21187045;27;20043;-78
2023/07/06 03:34:49;;;;;;;11.85;8.93;;;;;;;23.36;100.00;100391.94;21187695;27;20050;-79
2023/07/06 03:45:15;;;;;;;13.98;8.38;;;;;;;23.51;100.00;100398.47;21198556;27;20108;-78
2023/07/06 03:55:40;;;;;;;10.55;7.30;;;;;;;24.18;100.00;100399.03;21189918;27;20055;-78
2023/07/06 04:06:05;;;;;;;11.27;7.88;;;;;;;24.76;100.00;100392.72;21189284;27;20168;-78
2023/07/06 04:16:28;;;;;;;10.48;6.75;;;;;;;25.31;100.00;100405.28;21157860;27;20932;-78
2023/07/06 04:26:52;;;;;;;11.13;7.10;;;;;;;25.89;100.00;100401.38;21127955;27;20046;-78
2023/07/06 04:37:16;;;;;;;11.68;6.93;;;;;;;26.62;100.00;100409.09;21156717;27;20487;-79
2023/07/06 04:47:40;;;;;;;11.07;5.68;;;;;;;27.44;100.00;100409.72;21193520;27;20047;-79
2023/07/06 04:58:05;;;;;;;8.75;4.68;;;;;;;28.21;100.00;100406.84;21173683;27;20055;-79
2023/07/06 05:08:29;;;;;;;10.57;4.93;;;;;;;28.89;100.00;100406.97;21180378;27;20051;-77
2023/07/06 05:18:52;;;;;;;8.23;4.32;;;;;;;29.55;100.00;100417.91;21111853;27;20054;-76
2023/07/06 05:29:17;;;;;;;12.43;5.28;;;;;;;30.19;100.00;100442.56;21125376;28;20074;-75
2023/07/06 05:39:40;;;;;;;8.63;4.45;;;;;;;30.77;100.00;100444.69;21110521;28;20052;-77
2023/07/06 05:50:06;;;;;;;6.80;4.25;;;;;;;31.37;91.18;100447.47;21107929;28;20470;-77
2023/07/06 06:00:33;;;;;;;6.65;4.03;;;;;;;32.09;81.23;100444.63;21122040;28;20051;-77
2023/07/06 06:10:59;;;;;;;10.38;4.30;;;;;;;32.83;68.34;100441.34;21122220;28;20050;-78
2023/07/06 06:21:22;;;;;;;10.50;5.10;;;;;;;33.47;57.91;100430.53;21128202;28;20058;-79
2023/07/06 06:31:47;;;;;;;8.57;4.75;;;;;;;34.31;52.18;100427.75;21131505;28;20047;-77
2023/07/06 06:42:13;;;;;;;10.13;4.45;;;;;;;34.66;49.47;100430.03;21123013;28;20200;-78
2023/07/06 06:52:41;;;;;;;9.65;4.75;;;;;;;35.27;46.87;100434.63;21088322;28;20683;-76
2023/07/06 07:03:04;;;;;;;8.23;4.57;;;;;;;35.49;44.54;100435.22;21116122;27;20480;-76
2023/07/06 07:13:28;;;;;;;10.45;5.63;;;;;;;35.72;43.43;100435.81;21149643;27;20062;-77
2023/07/06 07:23:51;;;;;;;8.60;4.43;;;;;;;35.57;43.06;100426.25;21191654;27;20039;-78
2023/07/06 07:34:16;;;;;;;9.93;4.68;;;;;;;35.55;43.91;100436.53;21203282;27;20502;-80
2023/07/06 07:44:39;;;;;;;6.03;4.38;;;;;;;35.58;45.81;100427.13;21196535;27;20139;-77
2023/07/06 07:55:04;;;;;;;15.35;6.03;;;;;;;35.33;48.76;100428.53;21169839;27;20518;-80
2023/07/06 08:05:26;;;;;;;9.13;5.10;;;;;;;35.37;50.59;100439.13;21201305;27;20502;-76
2023/07/06 08:15:51;;;;;;;8.77;4.97;;;;;;;35.43;51.46;100441.28;21145556;27;20105;-75
2023/07/06 08:26:14;;;;;;;16.63;5.78;;;;;;;35.34;52.58;100447.63;21185377;27;20055;-75
2023/07/06 08:36:38;;;;;;;9.05;5.07;;;;;;;35.84;51.93;100444.81;21178426;27;20178;-79
2023/07/06 08:47:00;;;;;;;10.45;5.57;;;;;;;36.00;50.10;100438.69;21158529;27;20051;-77
2023/07/06 08:57:29;;;;;;;8.77;5.10;;;;;;;36.26;47.76;100451.69;21148863;27;20523;-78
2023/07/06 09:07:53;;;;;;;7.50;4.40;;;;;;;36.38;47.57;100446.88;21146612;27;20054;-77
2023/07/06 09:18:18;;;;;;;8.77;4.83;;;;;;;36.74;46.05;100450.69;21144309;27;20130;-77
2023/07/06 09:28:40;;;;;;;;;;;;;;;36.99;45.21;100462.88;21161878;27;20047;-78
2023/07/06 09:39:05;;;;;;;10.70;5.05;;;;;;;37.39;44.52;100479.03;21137722;27;19926;-79
2023/07/06 09:49:33;;;;;;;9.02;5.07;;;;;;;37.57;44.81;100479.03;21157332;27;20150;-79
2023/07/06 10:00:00;;;;;;;10.68;5.10;;;;;;;37.73;44.84;100459.94;21184851;27;20040;-78
2023/07/06 10:10:35;;;;;;;9.18;4.80;;;;;;;37.87;44.59;100467.66;21155141;28;20127;-79
2023/07/06 10:21:06;;;;;;;10.05;5.15;;;;;;;37.55;43.28;100467.31;21207197;28;20047;-78
2023/07/06 10:31:36;;;;;;;18.55;6.68;;;;;;;37.13;44.84;100461.50;21189327;28;20035;-77
2023/07/06 10:42:03;;;;;;;10.57;4.95;;;;;;;37.47;43.76;100470.88;21213858;27;20103;-77
2023/07/06 10:52:32;;;;;;;10.18;6.20;;;;;;;37.52;41.71;100465.75;21195118;27;20063;-78
2023/07/06 11:02:58;;;;;;;8.00;4.80;;;;;;;37.62;42.70;100472.06;21132408;27;20705;-77
2023/07/06 11:13:22;;;;;;;10.70;5.10;;;;;;;38.25;40.48;100463.69;21175525;27;20045;-79
2023/07/06 11:23:52;;;;;;;9.85;5.43;;;;;;;37.35;44.13;100466.59;21210684;27;20062;-81
2023/07/06 11:34:24;;;;;;;10.70;5.78;;;;;;;37.44;44.79;100466.50;21218846;27;20073;-79
2023/07/06 11:44:52;;;;;;;10.50;5.00;;;;;;;36.85;44.39;100474.38;21219934;27;20631;-78
2023/07/06 11:55:29;;;;;;;10.88;5.57;;;;;;;36.64;45.06;100474.56;21177761;27;20111;-78
2023/07/06 12:05:58;;;;;;;11.90;5.78;;;;;;;36.19;46.50;100493.66;21212044;27;20062;-80
2023/07/06 12:16:23;;;;;;;12.05;5.97;;;;;;;35.97;47.25;100489.34;21178905;27;20515;-77
2023/07/06 12:26:50;;;;;;;8.93;5.63;;;;;;;36.02;46.75;100480.66;21198748;27;20170;-78
2023/07/06 12:37:16;;;;;;;10.30;5.88;;;;;;;36.40;45.43;100482.47;21201868;27;20035;-78
2023/07/06 12:47:42;;;;;;;9.30;5.80;;;;;;;36.83;44.65;100481.91;21215744;27;20055;-79
2023/07/06 12:58:26;;;;;;;11.30;5.85;;;;;;;36.69;43.08;100464.03;21215652;27;20050;-78
2023/07/06 13:08:54;;;;;;;9.37;5.27;;;;;;;36.17;40.87;100481.97;21202114;27;20047;-80
2023/07/06 13:19:17;;;;;;;9.32;4.43;;;;;;;36.49;39.65;100476.09;21215614;27;20069;-78
2023/07/06 13:29:44;;;;;;;10.30;4.43;;;;;;;36.61;38.20;100450.13;21169959;27;20085;-79
2023/07/06 13:40:10;;;;;;;6.05;3.85;;;;;;;36.34;36.65;100465.56;21215775;27;20039;-78
2023/07/06 13:50:35;;;;;;;8.07;4.68;;;;;;;36.24;36.34;100461.97;21188702;27;20067;-79
2023/07/06 14:00:59;;;;;;;7.93;4.40;;;;;;;36.00;35.44;100447.78;21208727;27;20478;-76
2023/07/06 14:11:24;;;;;;;8.60;3.78;;;;;;;35.79;34.97;100442.47;21211127;27;20055;-76
2023/07/06 14:21:46;;;;;;;6.97;4.10;;;;;;;35.93;34.94;100461.25;21229709;27;20054;-81
2023/07/06 14:32:15;;;;;;;9.25;4.63;;;;;;;36.06;35.20;100457.34;21216921;27;20058;-78
2023/07/06 14:42:38;;;;;;;8.30;4.82;;;;;;;36.33;36.48;100446.47;21215396;27;20078;-78
2023/07/06 14:53:02;;;;;;;10.15;5.15;;;;;;;36.04;39.25;100454.72;21202002;27;20571;-78
2023/07/06 15:03:25;;;;;;;8.05;4.80;;;;;;;35.60;40.13;100438.81;21193112;27;20043;-80
2023/07/06 15:13:49;;;;;;;10.35;4.35;;;;;;;34.98;39.57;100442.78;21222764;27;20047;-77
2023/07/06 15:24:11;;;;;;;6.85;3.67;;;;;;;34.38;39.47;100445.38;21207025;27;20116;-77
2023/07/06 15:34:36;;;;;;;13.15;4.07;;;;;;;33.85;40.82;100449.19;21201994;27;20437;-78
2023/07/06 15:44:58;;;;;;;9.20;3.97;;;;;;;33.04;41.77;100456.00;21220982;27;20398;-77
2023/07/06 15:55:23;;;;;;;8.65;3.90;;;;;;;32.42;42.87;100469.31;21191755;27;20039;-79
2023/07/06 16:05:46;;;;;;;12.13;4.68;;;;;;;31.92;43.23;100465.94;21199501;27;21430;-78
2023/07/06 16:16:11;;;;;;;11.55;5.32;;;;;;;31.53;43.74;100474.44;21182574;27;20078;-77
2023/07/06 16:26:33;;;;;;;7.90;3.75;;;;;;;31.31;43.92;100483.38;21179708;27;20062;-79
2023/07/06 16:36:57;;;;;;;9.65;3.90;;;;;;;31.11;44.96;100492.19;21217804;27;20047;-77
2023/07/06 16:47:00;;;;;;;6.85;3.97;;;;;;;30.86;48.34;100493.94;21227408;27;20035;-79
2023/07/06 16:57:24;;;;;;;7.30;3.80;;;;;;;30.34;52.82;100507.69;21206023;27;20134;-83
2023/07/06 17:07:47;;;;;;;7.63;3.33;;;;;;;30.13;53.17;100516.53;21213531;27;20047;-77
2023/07/06 17:18:11;;;;;;;9.15;3.42;;;;;;;29.86;54.05;100517.41;21193404;27;20100;-82
2023/07/06 17:28:35;;;;;;;7.55;3.67;;;;;;;29.70;56.15;100531.19;21197653;27;20505;-79
2023/07/06 17:38:59;;;;;;;7.45;4.00;;;;;;;29.59;56.18;100541.03;21184683;27;20047;-80
2023/07/06 17:49:24;;;;;;;11.43;4.57;;;;;;;29.41;58.38;100544.97;21215786;27;20483;-81
2023/07/06 17:59:48;;;;;;;9.38;4.22;;;;;;;29.20;63.73;100545.41;21187125;27;20051;-80
2023/07/06 18:10:12;;;;;;;9.63;4.85;;;;;;;29.12;66.40;100546.84;21175669;27;20058;-79
2023/07/06 18:20:36;;;;;;;9.55;5.00;;;;;;;28.98;69.55;100558.63;21198683;27;20048;-81
2023/07/06 18:31:00;;;;;;;7.80;4.88;;;;;;;28.78;76.42;100569.88;21206391;27;20161;-80
2023/07/06 18:41:25;;;;;;;10.73;5.70;;;;;;;28.63;82.67;100568.94;21194278;27;20043;-82
2023/07/06 18:51:47;;;;;;;10.57;5.70;;;;;;;28.52;87.01;100568.75;21211686;27;20062;-80
2023/07/06 19:02:12;;;;;;;9.70;6.50;;;;;;;28.29;100.00;100572.03;21211425;27;20073;-80
2023/07/06 19:12:35;;;;;;;12.80;7.43;;;;;;;28.16;100.00;100598.16;21214425;27;20419;-80
2023/07/06 19:23:00;;;;;;;12.02;7.35;;;;;;;28.09;100.00;100605.78;21206754;27;20043;-79
2023/07/06 19:33:04;;;;;;;9.48;6.32;;;;;;;27.99;100.00;100616.28;21217150;27;20119;-80
2023/07/06 19:43:29;;;;;;;9.38;6.18;;;;;;;27.99;100.00;100643.44;21208500;27;20047;-81
2023/07/06 19:53:53;;;;;;;10.52;5.78;;;;;;;27.84;100.00;100638.00;21204490;27;20095;-81
2023/07/06 20:04:18;;;;;;;7.63;5.10;;;;;;;27.80;100.00;100644.59;21193547;27;20605;-81
2023/07/06 20:14:41;;;;;;;11.10;5.05;;;;;;;27.76;100.00;100660.19;21199688;27;20092;-81
2023/07/06 20:25:07;;;;;;;8.05;5.68;;;;;;;27.60;100.00;100676.44;21165701;27;20041;-82
2023/07/06 20:35:30;;;;;;;9.98;4.97;;;;;;;27.50;100.00;100674.31;21206277;27;20047;-85
2023/07/06 20:45:55;;;;;;;8.63;5.10;;;;;;;27.43;100.00;100670.19;21197204;27;20391;-81
2023/07/06 20:56:18;;;;;;;9.02;5.07;;;;;;;27.42;100.00;100674.72;21165022;27;20125;-80
2023/07/06 21:06:42;;;;;;;6.78;5.07;;;;;;;27.32;100.00;100662.63;21206715;27;20046;-79
2023/07/06 21:17:06;;;;;;;9.65;4.97;;;;;;;27.30;100.00;100661.84;21178470;27;20567;-79
2023/07/06 21:27:31;;;;;;;7.47;4.95;;;;;;;27.21;100.00;100665.94;21219594;27;20039;-81
2023/07/06 21:37:54;;;;;;;11.00;5.55;;;;;;;27.18;100.00;100655.25;21199737;27;20046;-81
2023/07/06 21:48:18;;;;;;;8.95;5.15;;;;;;;27.10;100.00;100657.53;21212458;27;20043;-81
2023/07/06 21:58:41;;;;;;;10.48;5.55;;;;;;;27.11;100.00;100647.56;21194116;27;20372;-80
2023/07/06 22:09:07;;;;;;;11.50;5.10;;;;;;;27.03;100.00;100650.69;21203426;27;20055;-80
2023/07/06 22:19:31;;;;;;;9.63;5.70;;;;;;;26.92;100.00;100651.25;21196865;27;20047;-81
2023/07/06 22:29:55;;;;;;;11.00;6.28;;;;;;;26.82;100.00;100633.72;21202516;27;20670;-81
2023/07/06 22:40:17;;;;;;;9.55;6.03;;;;;;;26.76;100.00;100628.63;21229424;27;20047;-81
2023/07/06 22:50:42;;;;;;;10.15;5.85;;;;;;;26.75;100.00;100626.88;21224901;27;20047;-81
2023/07/06 23:01:14;;;;;;;11.82;6.25;;;;;;;26.69;100.00;100624.50;21224449;27;20051;-80
2023/07/06 23:11:38;;;;;;;10.85;5.82;;;;;;;26.61;100.00;100610.47;21218444;27;20061;-80
2023/07/06 23:22:01;;;;;;;11.43;6.03;;;;;;;26.66;100.00;100610.22;21223889;27;20596;-81
2023/07/06 23:32:26;;;;;;;9.15;5.90;;;;;;;26.52;100.00;100597.41;21211520;27;20059;-81
2023/07/06 23:42:49;;;;;;;8.95;6.30;;;;;;;26.49;100.00;100592.16;21217219;27;20361;-81
2023/07/06 23:53:13;;;;;;;7.45;5.47;;;;;;;26.30;100.00;100591.38;21204485;27;20293;-81
